Time;durP1;ratioP1;P1;durP2;ratioP2;P2;SDS_P1;SDS_P2;PMS_P1;PMS_P2;Temp;Humidity;BMP_temperature;BMP_pressure;BME280_temperature;BME280_humidity;BME280_pressure;Samples;Min_cycle;Max_cycle;Signal;HPM_P1;HPM_P2
2021/04/14 00:00:33;;;;;;;9.77;2.70;;;;;;;;;;5037772;28;20373;-87
2021/04/14 00:03:00;;;;;;;10.57;3.08;;;;;;;;;;5032532;28;20369;-82
2021/04/14 00:05:28;;;;;;;8.52;2.85;;;;;;;;;;5031440;28;20840;-84
2021/04/14 00:07:54;;;;;;;6.18;2.95;;;;;;;;;;5032543;28;20447;-83
2021/04/14 00:10:25;;;;;;;7.90;2.80;;;;;;;;;;5032521;28;20755;-85
2021/04/14 00:12:51;;;;;;;9.02;3.20;;;;;;;;;;5032941;28;20412;-86
2021/04/14 00:15:19;;;;;;;9.30;3.13;;;;;;;;;;5032364;28;20398;-83
2021/04/14 00:17:45;;;;;;;8.70;3.10;;;;;;;;;;5030979;28;20400;-85
2021/04/14 00:20:11;;;;;;;10.37;3.17;;;;;;;;;;5032098;28;20856;-85
2021/04/14 00:22:38;;;;;;;9.68;3.40;;;;;;;;;;5032451;28;20366;-83
2021/04/14 00:25:04;;;;;;;7.93;2.90;;;;;;;;;;5031878;28;20396;-83
2021/04/14 00:27:30;;;;;;;11.93;3.33;;;;;;;;;;5030497;28;20376;-83
2021/04/14 00:29:56;;;;;;;10.00;3.10;;;;;;;;;;5030431;28;20479;-85
2021/04/14 00:32:22;;;;;;;9.35;3.03;;;;;;;;;;5030631;28;20369;-85
2021/04/14 00:34:48;;;;;;;10.32;2.97;;;;;;;;;;5030915;28;20962;-85
2021/04/14 00:37:14;;;;;;;10.27;2.90;;;;;;;;;;5030294;28;20374;-83
2021/04/14 00:39:40;;;;;;;9.20;2.80;;;;;;;;;;5030304;28;20392;-86
2021/04/14 00:42:06;;;;;;;11.53;3.43;;;;;;;;;;5031697;28;20378;-85
2021/04/14 00:44:32;;;;;;;9.77;3.13;;;;;;;;;;5032020;28;20366;-81
2021/04/14 00:46:58;;;;;;;10.07;3.00;;;;;;;;;;5032522;28;20850;-84
2021/04/14 00:49:24;;;;;;;10.20;3.03;;;;;;;;;;5031065;28;20403;-86
2021/04/14 00:51:50;;;;;;;15.83;3.77;;;;;;;;;;5031671;28;20378;-84
2021/04/14 00:54:16;;;;;;;10.77;2.90;;;;;;;;;;5031772;28;20895;-86
2021/04/14 00:56:42;;;;;;;11.23;3.30;;;;;;;;;;5031436;28;20412;-83
2021/04/14 00:59:08;;;;;;;10.38;3.33;;;;;;;;;;5031338;28;20854;-87
2021/04/14 01:01:34;;;;;;;11.60;3.33;;;;;;;;;;5031474;28;20752;-89
2021/04/14 01:04:00;;;;;;;12.25;3.70;;;;;;;;;;5031341;28;20372;-82
2021/04/14 01:06:28;;;;;;;13.45;3.72;;;;;;;;;;5031388;28;20859;-81
2021/04/14 01:08:54;;;;;;;13.90;3.50;;;;;;;;;;5029947;28;20393;-85
2021/04/14 01:11:21;;;;;;;10.70;3.60;;;;;;;;;;5029846;28;20381;-85
2021/04/14 01:13:47;;;;;;;11.02;3.67;;;;;;;;;;5029830;28;20373;-84
2021/04/14 01:16:13;;;;;;;10.38;3.13;;;;;;;;;;5031373;28;20724;-87
2021/04/14 01:18:40;;;;;;;13.75;3.58;;;;;;;;;;5031524;28;20365;-85
2021/04/14 01:21:07;;;;;;;15.18;4.20;;;;;;;;;;5030213;28;20799;-86
2021/04/14 01:23:34;;;;;;;12.70;3.70;;;;;;;;;;5030867;28;20385;-85
2021/04/14 01:26:00;;;;;;;13.50;3.70;;;;;;;;;;5035914;28;20388;-87
2021/04/14 01:28:47;;;;;;;12.27;3.78;;;;;;;;;;5032623;28;20416;-85
2021/04/14 01:31:15;;;;;;;14.88;3.97;;;;;;;;;;5032360;28;20396;-84
2021/04/14 01:33:41;;;;;;;13.57;3.88;;;;;;;;;;5030706;28;20409;-84
2021/04/14 01:36:09;;;;;;;12.98;3.85;;;;;;;;;;5040575;28;20448;-82
2021/04/14 01:38:35;;;;;;;11.88;3.92;;;;;;;;;;5030823;28;20783;-83
2021/04/14 01:41:02;;;;;;;10.85;3.25;;;;;;;;;;5031894;28;20456;-85
2021/04/14 01:43:28;;;;;;;16.23;4.70;;;;;;;;;;5032009;28;20452;-84
2021/04/14 01:45:54;;;;;;;17.92;4.38;;;;;;;;;;5032622;28;20453;-85
2021/04/14 01:48:20;;;;;;;12.98;3.97;;;;;;;;;;5033922;28;20381;-82
2021/04/14 01:50:47;;;;;;;15.30;4.32;;;;;;;;;;5036645;28;20373;-80
2021/04/14 01:53:14;;;;;;;9.95;4.00;;;;;;;;;;5039200;28;20476;-83
2021/04/14 01:55:40;;;;;;;15.23;4.15;;;;;;;;;;5036005;28;20876;-81
2021/04/14 01:58:07;;;;;;;19.52;4.40;;;;;;;;;;5036038;28;20365;-85
2021/04/14 02:00:36;;;;;;;17.17;4.40;;;;;;;;;;5034769;28;20374;-82
2021/04/14 02:03:02;;;;;;;17.17;4.03;;;;;;;;;;5033826;28;20366;-85
2021/04/14 02:05:30;;;;;;;15.88;4.20;;;;;;;;;;5033558;28;20385;-86
2021/04/14 02:07:56;;;;;;;15.68;3.92;;;;;;;;;;5033756;28;20771;-83
2021/04/14 02:10:23;;;;;;;18.63;4.27;;;;;;;;;;5035678;28;20432;-83
2021/04/14 02:12:49;;;;;;;13.95;4.32;;;;;;;;;;5035810;28;20393;-83
2021/04/14 02:15:16;;;;;;;13.93;3.70;;;;;;;;;;5034485;28;20393;-85
2021/04/14 02:17:42;;;;;;;18.33;4.60;;;;;;;;;;5034497;28;20377;-86
2021/04/14 02:20:09;;;;;;;13.90;4.43;;;;;;;;;;5034905;28;20372;-83
2021/04/14 02:22:35;;;;;;;14.63;4.38;;;;;;;;;;5033836;28;20381;-83
2021/04/14 02:25:01;;;;;;;14.55;4.38;;;;;;;;;;5034822;28;20372;-83
2021/04/14 02:27:27;;;;;;;15.88;4.28;;;;;;;;;;5034572;28;20855;-83
2021/04/14 02:29:53;;;;;;;17.58;4.45;;;;;;;;;;5034525;28;20407;-83
2021/04/14 02:32:19;;;;;;;12.73;4.40;;;;;;;;;;5033014;28;20388;-83
2021/04/14 02:34:45;;;;;;;12.75;4.05;;;;;;;;;;5034096;28;20389;-83
2021/04/14 02:37:11;;;;;;;15.05;4.80;;;;;;;;;;5033035;28;20739;-85
2021/04/14 02:39:37;;;;;;;11.32;4.30;;;;;;;;;;5033134;28;20377;-82
2021/04/14 02:42:03;;;;;;;17.17;5.07;;;;;;;;;;5034076;28;20372;-84
2021/04/14 02:44:29;;;;;;;19.67;4.88;;;;;;;;;;5033976;28;20852;-87
2021/04/14 02:46:56;;;;;;;17.10;5.23;;;;;;;;;;5033934;28;20400;-81
2021/04/14 02:49:24;;;;;;;19.33;4.93;;;;;;;;;;5032432;28;20373;-81
2021/04/14 02:51:50;;;;;;;19.05;5.18;;;;;;;;;;5032754;28;20386;-84
2021/04/14 02:54:16;;;;;;;16.65;4.80;;;;;;;;;;5032431;28;20393;-84
2021/04/14 02:56:42;;;;;;;17.40;6.05;;;;;;;;;;5032454;28;20362;-82
2021/04/14 02:59:08;;;;;;;15.48;5.05;;;;;;;;;;5033609;28;20492;-83
2021/04/14 03:01:34;;;;;;;14.47;4.83;;;;;;;;;;5032201;28;20389;-82
2021/04/14 03:04:00;;;;;;;19.45;4.88;;;;;;;;;;5033918;28;20412;-83
2021/04/14 03:06:26;;;;;;;18.00;5.38;;;;;;;;;;5033619;28;20397;-85
2021/04/14 03:08:52;;;;;;;15.75;4.38;;;;;;;;;;5031840;28;20514;-81
2021/04/14 03:11:18;;;;;;;21.20;5.10;;;;;;;;;;5033454;28;20946;-85
2021/04/14 03:13:44;;;;;;;14.73;4.68;;;;;;;;;;5032056;28;20383;-84
2021/04/14 03:16:10;;;;;;;20.13;4.78;;;;;;;;;;5033403;28;20465;-83
2021/04/14 03:18:36;;;;;;;16.58;5.22;;;;;;;;;;5031736;28;20464;-81
2021/04/14 03:21:02;;;;;;;15.30;5.13;;;;;;;;;;5031726;28;20378;-82
2021/04/14 03:23:28;;;;;;;18.10;4.90;;;;;;;;;;5032174;28;20447;-87
2021/04/14 03:25:54;;;;;;;14.80;4.90;;;;;;;;;;5032047;28;20455;-82
2021/04/14 03:28:20;;;;;;;16.65;4.93;;;;;;;;;;5033469;28;20373;-84
2021/04/14 03:30:46;;;;;;;18.02;5.50;;;;;;;;;;5033148;28;20459;-84
2021/04/14 03:33:13;;;;;;;18.40;5.67;;;;;;;;;;5033260;28;20447;-85
2021/04/14 03:35:39;;;;;;;20.88;5.88;;;;;;;;;;5032873;28;20397;-86
2021/04/14 03:38:05;;;;;;;14.10;5.10;;;;;;;;;;5033064;28;20376;-83
2021/04/14 03:40:32;;;;;;;19.52;5.45;;;;;;;;;;5033185;28;20365;-81
2021/04/14 03:42:58;;;;;;;17.90;5.65;;;;;;;;;;5033293;28;20405;-86
2021/04/14 03:45:29;;;;;;;17.48;5.43;;;;;;;;;;5032244;28;20373;-83
2021/04/14 03:47:55;;;;;;;20.55;5.75;;;;;;;;;;5031893;28;20493;-82
2021/04/14 03:50:22;;;;;;;20.77;6.22;;;;;;;;;;5032985;28;20373;-82
2021/04/14 03:52:49;;;;;;;16.67;5.65;;;;;;;;;;5032738;28;20409;-82
2021/04/14 03:55:15;;;;;;;19.80;5.82;;;;;;;;;;5031343;28;20488;-83
2021/04/14 03:57:41;;;;;;;19.40;6.13;;;;;;;;;;5033038;28;20373;-81
2021/04/14 04:00:08;;;;;;;15.40;5.82;;;;;;;;;;5032096;28;20382;-85
2021/04/14 04:02:34;;;;;;;17.50;5.88;;;;;;;;;;5032371;28;20439;-86
2021/04/14 04:05:00;;;;;;;16.88;5.50;;;;;;;;;;5032024;28;20369;-84
2021/04/14 04:07:26;;;;;;;25.63;6.88;;;;;;;;;;5032635;28;20472;-86
2021/04/14 04:09:52;;;;;;;19.70;6.03;;;;;;;;;;5033814;28;20393;-85
2021/04/14 04:12:19;;;;;;;21.75;6.28;;;;;;;;;;5032771;28;20377;-83
2021/04/14 04:14:51;;;;;;;20.63;5.97;;;;;;;;;;5031329;28;20811;-85
2021/04/14 04:17:19;;;;;;;18.95;6.72;;;;;;;;;;5032491;28;20349;-80
2021/04/14 04:19:45;;;;;;;19.35;7.13;;;;;;;;;;5032278;28;20449;-86
2021/04/14 04:22:12;;;;;;;19.05;6.47;;;;;;;;;;5030796;28;20765;-83
2021/04/14 04:24:38;;;;;;;17.40;6.53;;;;;;;;;;5032880;28;20370;-82
2021/04/14 04:27:05;;;;;;;16.98;6.47;;;;;;;;;;5031110;28;20403;-83
2021/04/14 04:29:31;;;;;;;21.17;7.32;;;;;;;;;;5032547;28;20392;-84
2021/04/14 04:31:57;;;;;;;22.15;7.70;;;;;;;;;;5032229;28;20452;-85
2021/04/14 04:34:23;;;;;;;25.90;7.73;;;;;;;;;;5031978;28;20496;-83
2021/04/14 04:36:50;;;;;;;16.90;6.95;;;;;;;;;;5031908;28;20416;-88
2021/04/14 04:39:16;;;;;;;23.98;7.90;;;;;;;;;;5032013;28;20439;-84
2021/04/14 04:41:42;;;;;;;20.05;7.28;;;;;;;;;;5032217;28;20368;-83
2021/04/14 04:44:08;;;;;;;26.13;8.25;;;;;;;;;;5032067;28;20370;-81
2021/04/14 04:46:34;;;;;;;22.42;7.90;;;;;;;;;;5031779;28;20388;-87
2021/04/14 04:49:00;;;;;;;22.23;8.23;;;;;;;;;;5031748;28;20373;-86
2021/04/14 04:51:26;;;;;;;22.33;7.03;;;;;;;;;;5032007;28;20843;-84
2021/04/14 04:53:52;;;;;;;19.55;7.68;;;;;;;;;;5030917;28;20871;-86
2021/04/14 04:56:18;;;;;;;19.08;6.78;;;;;;;;;;5032158;28;20373;-83
2021/04/14 04:58:45;;;;;;;21.35;7.25;;;;;;;;;;5032487;28;20376;-81
2021/04/14 05:01:11;;;;;;;18.03;7.50;;;;;;;;;;5031434;28;20376;-86
2021/04/14 05:03:37;;;;;;;20.05;6.95;;;;;;;;;;5032321;28;20369;-89
2021/04/14 05:06:03;;;;;;;19.58;6.60;;;;;;;;;;5032654;28;20369;-86
2021/04/14 05:08:29;;;;;;;20.48;6.43;;;;;;;;;;5031485;28;20365;-83
2021/04/14 05:10:55;;;;;;;20.17;5.88;;;;;;;;;;5032305;28;20397;-86
2021/04/14 05:13:22;;;;;;;19.55;5.68;;;;;;;;;;5033928;28;20374;-82
2021/04/14 05:15:48;;;;;;;19.30;5.93;;;;;;;;;;5035535;28;20397;-83
2021/04/14 05:18:14;;;;;;;23.60;6.72;;;;;;;;;;5034631;28;20377;-82
2021/04/14 05:20:41;;;;;;;18.70;5.78;;;;;;;;;;5031393;28;20381;-83
2021/04/14 05:23:07;;;;;;;18.90;6.78;;;;;;;;;;5031710;28;20739;-84
2021/04/14 05:25:34;;;;;;;20.50;6.90;;;;;;;;;;5031162;28;20431;-83
2021/04/14 05:28:07;;;;;;;21.80;7.78;;;;;;;;;;5030628;28;20365;-86
2021/04/14 05:30:34;;;;;;;26.63;7.70;;;;;;;;;;5030360;28;20389;-85
2021/04/14 05:33:00;;;;;;;19.65;7.22;;;;;;;;;;5032051;28;20372;-84
2021/04/14 05:35:26;;;;;;;20.00;7.10;;;;;;;;;;5030470;28;20865;-81
2021/04/14 05:37:52;;;;;;;19.85;7.80;;;;;;;;;;5030626;28;20374;-81
2021/04/14 05:40:18;;;;;;;23.00;7.03;;;;;;;;;;5037035;28;20370;-87
2021/04/14 05:42:46;;;;;;;17.92;6.85;;;;;;;;;;5032495;28;20377;-84
2021/04/14 05:45:14;;;;;;;20.38;6.95;;;;;;;;;;5034327;28;20373;-85
2021/04/14 05:47:40;;;;;;;20.45;8.02;;;;;;;;;;5031191;28;20468;-85
2021/04/14 05:50:07;;;;;;;18.85;7.57;;;;;;;;;;5030616;28;20456;-86
2021/04/14 05:52:33;;;;;;;25.10;7.90;;;;;;;;;;5030125;28;20511;-83
2021/04/14 05:54:59;;;;;;;20.75;7.43;;;;;;;;;;5029487;28;20394;-85
2021/04/14 05:57:25;;;;;;;21.75;7.20;;;;;;;;;;5029817;28;20369;-81
2021/04/14 05:59:51;;;;;;;20.07;6.83;;;;;;;;;;5029845;28;20432;-85
2021/04/14 06:02:17;;;;;;;23.80;7.78;;;;;;;;;;5030996;28;20831;-81
2021/04/14 06:04:43;;;;;;;21.88;7.15;;;;;;;;;;5030834;28;20392;-83
2021/04/14 06:07:10;;;;;;;19.17;7.13;;;;;;;;;;5029808;28;20880;-84
2021/04/14 06:09:36;;;;;;;18.20;6.68;;;;;;;;;;5030700;28;20892;-84
2021/04/14 06:12:02;;;;;;;22.50;6.55;;;;;;;;;;5031548;28;20423;-83
2021/04/14 06:14:28;;;;;;;19.13;6.80;;;;;;;;;;5032186;28;20772;-83
2021/04/14 06:16:54;;;;;;;20.77;7.03;;;;;;;;;;5037274;28;20370;-80
2021/04/14 06:19:20;;;;;;;16.65;6.53;;;;;;;;;;5031046;28;20375;-80
2021/04/14 06:21:46;;;;;;;17.83;6.55;;;;;;;;;;5030370;28;20373;-80
2021/04/14 06:24:13;;;;;;;19.17;6.25;;;;;;;;;;5032681;28;20392;-85
2021/04/14 06:26:44;;;;;;;16.48;6.13;;;;;;;;;;5018653;28;20550;-86
2021/04/14 06:29:11;;;;;;;20.08;6.60;;;;;;;;;;5019937;28;20394;-87
2021/04/14 06:31:40;;;;;;;15.32;6.88;;;;;;;;;;5022744;28;20378;-83
2021/04/14 06:34:16;;;;;;;20.40;6.63;;;;;;;;;;5025853;28;20425;-81
2021/04/14 06:36:44;;;;;;;18.00;6.70;;;;;;;;;;5027443;28;20800;-88
2021/04/14 06:39:11;;;;;;;15.60;6.20;;;;;;;;;;5031821;28;20933;-85
2021/04/14 06:44:24;;;;;;;16.88;6.53;;;;;;;;;;5036094;28;20859;-87
2021/04/14 06:46:51;;;;;;;18.80;6.30;;;;;;;;;;5035818;28;20376;-81
2021/04/14 06:49:17;;;;;;;16.53;6.10;;;;;;;;;;5036567;28;20365;-83
2021/04/14 06:51:55;;;;;;;17.17;6.50;;;;;;;;;;5035669;28;20466;-81
2021/04/14 06:54:40;;;;;;;18.33;6.53;;;;;;;;;;5035410;28;20404;-86
2021/04/14 06:57:07;;;;;;;18.42;6.47;;;;;;;;;;5030815;28;20386;-82
2021/04/14 06:59:35;;;;;;;20.10;6.68;;;;;;;;;;5023382;28;20386;-84
2021/04/14 07:02:22;;;;;;;17.23;6.43;;;;;;;;;;5023872;28;20950;-84
2021/04/14 07:04:51;;;;;;;19.73;6.28;;;;;;;;;;5024385;28;20365;-84
2021/04/14 07:07:24;;;;;;;20.80;6.55;;;;;;;;;;5021879;28;20391;-87
2021/04/14 07:09:51;;;;;;;17.38;5.88;;;;;;;;;;5022702;28;20643;-86
2021/04/14 07:12:18;;;;;;;18.42;6.20;;;;;;;;;;5023313;28;20728;-84
2021/04/14 07:14:46;;;;;;;20.13;6.45;;;;;;;;;;5022864;28;20791;-84
2021/04/14 07:17:18;;;;;;;17.95;6.40;;;;;;;;;;5022737;28;20473;-83
2021/04/14 07:19:50;;;;;;;23.02;6.70;;;;;;;;;;5022607;28;20728;-84
2021/04/14 07:22:30;;;;;;;18.13;6.10;;;;;;;;;;5028270;28;20885;-85
2021/04/14 07:24:58;;;;;;;20.88;6.47;;;;;;;;;;5031397;28;20373;-81
2021/04/14 07:27:42;;;;;;;15.07;6.20;;;;;;;;;;5030125;28;20854;-82
2021/04/14 07:30:11;;;;;;;17.35;6.03;;;;;;;;;;5031174;28;20377;-84
2021/04/14 07:32:56;;;;;;;20.98;6.28;;;;;;;;;;5031270;28;20380;-87
2021/04/14 07:35:28;;;;;;;20.40;6.80;;;;;;;;;;5032621;28;20403;-82
2021/04/14 07:38:10;;;;;;;17.38;5.63;;;;;;;;;;5028843;28;20381;-82
2021/04/14 07:40:41;;;;;;;18.20;6.50;;;;;;;;;;5033948;28;20369;-83
2021/04/14 07:43:17;;;;;;;15.17;5.27;;;;;;;;;;5021709;28;20446;-84
2021/04/14 07:45:43;;;;;;;19.83;6.57;;;;;;;;;;5014789;28;20802;-84
2021/04/14 07:48:10;;;;;;;18.63;6.03;;;;;;;;;;5023050;28;20475;-86
2021/04/14 07:50:47;;;;;;;19.50;5.88;;;;;;;;;;5031271;28;20382;-88
2021/04/14 07:53:23;;;;;;;16.45;5.65;;;;;;;;;;5034628;28;20435;-89
2021/04/14 07:56:01;;;;;;;14.88;5.60;;;;;;;;;;5030797;28;20409;-86
2021/04/14 07:58:28;;;;;;;18.77;5.43;;;;;;;;;;5033956;28;20385;-90
2021/04/14 08:00:54;;;;;;;19.67;5.65;;;;;;;;;;5033111;28;20357;-86
2021/04/14 08:03:31;;;;;;;17.65;5.60;;;;;;;;;;5030628;28;20381;-91
2021/04/14 08:06:12;;;;;;;17.00;5.20;;;;;;;;;;5032146;28;20377;-84
2021/04/14 08:08:39;;;;;;;14.98;4.88;;;;;;;;;;5031702;28;20373;-85
2021/04/14 08:11:10;;;;;;;15.65;5.18;;;;;;;;;;5029507;28;20867;-84
2021/04/14 08:13:41;;;;;;;14.10;4.68;;;;;;;;;;5029155;28;20392;-88
2021/04/14 08:16:32;;;;;;;17.05;4.50;;;;;;;;;;5030117;28;20404;-86
2021/04/14 08:19:01;;;;;;;18.08;5.53;;;;;;;;;;5029802;28;20459;-84
2021/04/14 08:21:38;;;;;;;20.17;5.53;;;;;;;;;;5030058;28;20400;-83
2021/04/14 08:24:13;;;;;;;16.70;5.47;;;;;;;;;;5029757;28;20395;-83
2021/04/14 08:26:48;;;;;;;15.27;5.13;;;;;;;;;;5031517;28;20389;-82
2021/04/14 08:29:16;;;;;;;14.73;4.93;;;;;;;;;;5029477;28;20392;-83
2021/04/14 08:31:45;;;;;;;16.67;4.13;;;;;;;;;;5030112;28;20860;-85
2021/04/14 08:34:14;;;;;;;12.32;4.18;;;;;;;;;;5030599;28;20886;-85
2021/04/14 08:36:43;;;;;;;11.65;4.20;;;;;;;;;;5030360;28;20373;-83
2021/04/14 08:39:10;;;;;;;16.92;4.78;;;;;;;;;;5031466;28;20875;-82
2021/04/14 08:41:36;;;;;;;14.52;4.38;;;;;;;;;;5031533;28;20388;-85
2021/04/14 08:44:06;;;;;;;14.27;4.60;;;;;;;;;;5028234;28;20378;-87
2021/04/14 08:46:37;;;;;;;11.95;4.10;;;;;;;;;;5026184;28;20379;-84
2021/04/14 08:49:03;;;;;;;12.55;4.38;;;;;;;;;;5012572;28;20383;-83
2021/04/14 08:51:30;;;;;;;15.02;4.65;;;;;;;;;;5032323;28;20388;-86
2021/04/14 08:53:58;;;;;;;17.38;4.60;;;;;;;;;;5030955;28;20380;-84
2021/04/14 08:56:26;;;;;;;13.27;4.18;;;;;;;;;;5032475;28;20361;-86
2021/04/14 08:58:53;;;;;;;11.18;3.97;;;;;;;;;;5033100;28;20732;-84
2021/04/14 09:01:19;;;;;;;12.87;4.20;;;;;;;;;;5025129;28;20446;-83
2021/04/14 09:03:46;;;;;;;11.38;4.20;;;;;;;;;;5029998;28;20943;-88
2021/04/14 09:06:13;;;;;;;13.23;4.38;;;;;;;;;;5025923;28;20398;-82
2021/04/14 09:08:42;;;;;;;11.02;4.00;;;;;;;;;;5025032;28;20483;-91
2021/04/14 09:11:15;;;;;;;11.55;4.30;;;;;;;;;;5028691;28;20394;-87
2021/04/14 09:13:41;;;;;;;14.52;4.28;;;;;;;;;;5025732;28;20732;-84
2021/04/14 09:16:08;;;;;;;11.38;3.90;;;;;;;;;;5030801;28;20397;-86
2021/04/14 09:18:54;;;;;;;13.30;3.97;;;;;;;;;;5029813;28;20917;-85
2021/04/14 09:21:22;;;;;;;11.63;4.03;;;;;;;;;;5029360;28;20633;-82
2021/04/14 09:23:57;;;;;;;11.82;3.63;;;;;;;;;;5029857;28;20435;-89
2021/04/14 09:26:29;;;;;;;10.73;3.20;;;;;;;;;;5031468;28;20381;-81
2021/04/14 09:28:56;;;;;;;9.73;3.38;;;;;;;;;;5033665;28;20366;-86
2021/04/14 09:31:39;;;;;;;12.32;3.35;;;;;;;;;;5031791;28;20389;-84
2021/04/14 09:34:30;;;;;;;9.98;3.72;;;;;;;;;;5028801;28;20374;-87
2021/04/14 09:37:04;;;;;;;8.00;2.72;;;;;;;;;;5031789;28;20369;-83
2021/04/14 09:39:41;;;;;;;9.32;2.63;;;;;;;;;;5030022;28;20913;-81
2021/04/14 09:42:22;;;;;;;9.07;2.92;;;;;;;;;;5034673;28;20604;-81
2021/04/14 09:44:50;;;;;;;7.70;2.53;;;;;;;;;;5039366;28;20381;-81
2021/04/14 09:47:18;;;;;;;13.05;3.20;;;;;;;;;;5038807;28;20400;-81
2021/04/14 09:49:46;;;;;;;12.63;2.90;;;;;;;;;;5036176;28;20381;-84
2021/04/14 09:52:26;;;;;;;7.60;2.88;;;;;;;;;;5030688;28;20377;-84
2021/04/14 09:54:56;;;;;;;8.70;2.95;;;;;;;;;;5031310;28;20548;-91
2021/04/14 09:57:30;;;;;;;9.43;3.00;;;;;;;;;;5029872;28;20514;-84
2021/04/14 09:59:58;;;;;;;10.57;3.10;;;;;;;;;;5027352;28;20382;-86
2021/04/14 10:02:28;;;;;;;8.52;2.90;;;;;;;;;;5033763;28;20876;-83
2021/04/14 10:05:00;;;;;;;6.78;2.40;;;;;;;;;;5036533;28;20468;-82
2021/04/14 10:07:32;;;;;;;11.00;2.88;;;;;;;;;;5037938;28;20408;-82
2021/04/14 10:10:05;;;;;;;5.55;1.95;;;;;;;;;;5036058;28;20401;-81
2021/04/14 10:12:31;;;;;;;7.63;2.65;;;;;;;;;;5035016;28;20373;-81
2021/04/14 10:14:58;;;;;;;8.25;2.65;;;;;;;;;;5028509;28;21059;-81
2021/04/14 10:17:26;;;;;;;9.03;2.87;;;;;;;;;;5027666;28;20388;-80
2021/04/14 10:19:56;;;;;;;6.45;2.67;;;;;;;;;;5038826;28;20366;-89
2021/04/14 10:22:33;;;;;;;10.18;2.75;;;;;;;;;;5039212;28;20405;-88
2021/04/14 10:25:00;;;;;;;5.70;2.03;;;;;;;;;;5037299;28;20379;-85
2021/04/14 10:27:26;;;;;;;7.70;2.13;;;;;;;;;;5021354;28;20375;-92
2021/04/14 10:29:52;;;;;;;6.45;2.20;;;;;;;;;;5027116;28;20808;-86
2021/04/14 10:32:23;;;;;;;7.25;2.00;;;;;;;;;;5033920;28;20416;-82
2021/04/14 10:34:49;;;;;;;5.32;2.13;;;;;;;;;;5039405;28;20393;-83
2021/04/14 10:37:20;;;;;;;7.20;2.22;;;;;;;;;;5039984;28;20368;-90
2021/04/14 10:39:46;;;;;;;7.00;2.17;;;;;;;;;;5037446;28;20373;-85
2021/04/14 10:42:17;;;;;;;7.03;2.10;;;;;;;;;;5037405;28;20408;-85
2021/04/14 10:44:43;;;;;;;7.07;2.13;;;;;;;;;;5030131;28;20420;-86
2021/04/14 10:47:12;;;;;;;5.32;1.95;;;;;;;;;;5027886;28;20480;-88
2021/04/14 10:49:38;;;;;;;4.53;2.25;;;;;;;;;;5033722;28;20381;-84
2021/04/14 10:52:11;;;;;;;7.72;2.30;;;;;;;;;;5034956;28;20380;-85
2021/04/14 10:54:40;;;;;;;6.40;2.42;;;;;;;;;;5033343;28;20421;-86
2021/04/14 10:57:08;;;;;;;6.43;1.90;;;;;;;;;;5036064;28;20373;-87
2021/04/14 10:59:35;;;;;;;6.18;1.80;;;;;;;;;;5035568;28;20456;-86
2021/04/14 11:02:01;;;;;;;7.10;2.20;;;;;;;;;;5039037;28;20365;-90
2021/04/14 11:04:30;;;;;;;8.57;2.40;;;;;;;;;;5036429;28;20370;-85
2021/04/14 11:07:04;;;;;;;6.30;2.13;;;;;;;;;;5035488;28;20447;-87
2021/04/14 11:09:32;;;;;;;4.95;2.20;;;;;;;;;;5036101;28;20385;-82
2021/04/14 11:11:59;;;;;;;9.93;2.67;;;;;;;;;;5035810;28;20867;-82
2021/04/14 11:14:25;;;;;;;6.47;2.30;;;;;;;;;;5038326;28;20450;-80
2021/04/14 11:16:52;;;;;;;6.15;2.22;;;;;;;;;;5042252;28;20385;-83
2021/04/14 11:19:18;;;;;;;5.40;2.43;;;;;;;;;;5041099;28;20867;-81
2021/04/14 11:21:45;;;;;;;6.40;2.50;;;;;;;;;;5042116;28;20428;-81
2021/04/14 11:24:11;;;;;;;8.00;2.30;;;;;;;;;;5040079;28;20743;-85
2021/04/14 11:26:57;;;;;;;6.03;2.30;;;;;;;;;;5047952;28;20385;-80
2021/04/14 11:29:33;;;;;;;7.45;2.20;;;;;;;;;;5044194;28;20401;-80
2021/04/14 11:32:04;;;;;;;6.95;2.03;;;;;;;;;;5044204;28;20377;-80
2021/04/14 11:34:31;;;;;;;5.88;2.30;;;;;;;;;;5042924;28;20390;-87
2021/04/14 11:36:57;;;;;;;6.68;2.53;;;;;;;;;;5032908;28;20381;-80
2021/04/14 11:39:24;;;;;;;4.57;2.08;;;;;;;;;;5037255;28;20903;-80
2021/04/14 11:42:04;;;;;;;6.80;2.60;;;;;;;;;;5033507;28;20381;-89
2021/04/14 11:44:38;;;;;;;6.72;1.95;;;;;;;;;;5036648;28;20365;-82
2021/04/14 11:47:06;;;;;;;5.82;2.20;;;;;;;;;;5035662;28;20388;-84
2021/04/14 11:49:37;;;;;;;6.70;2.10;;;;;;;;;;5036696;28;20374;-82
2021/04/14 11:52:32;;;;;;;3.97;1.80;;;;;;;;;;5033105;28;20370;-86
2021/04/14 11:55:23;;;;;;;8.25;2.38;;;;;;;;;;5028199;28;20417;-85
2021/04/14 11:58:03;;;;;;;9.88;2.35;;;;;;;;;;5033670;28;20362;-83
2021/04/14 12:00:39;;;;;;;5.50;2.00;;;;;;;;;;5034212;28;20373;-87
2021/04/14 12:03:20;;;;;;;5.72;2.25;;;;;;;;;;5032559;28;20369;-82
2021/04/14 12:05:50;;;;;;;5.88;2.10;;;;;;;;;;5035637;28;20365;-83
2021/04/14 12:08:16;;;;;;;6.20;2.00;;;;;;;;;;5037592;28;20377;-82
2021/04/14 12:10:42;;;;;;;6.23;2.07;;;;;;;;;;5032577;28;20381;-84
2021/04/14 12:13:08;;;;;;;7.53;2.30;;;;;;;;;;5031751;28;20469;-83
2021/04/14 12:15:34;;;;;;;7.28;2.30;;;;;;;;;;5032143;28;20491;-81
2021/04/14 12:18:00;;;;;;;6.13;2.10;;;;;;;;;;5031369;28;20374;-83
2021/04/14 12:20:26;;;;;;;5.38;2.28;;;;;;;;;;5032176;28;20439;-87
2021/04/14 12:22:53;;;;;;;7.40;2.30;;;;;;;;;;5032696;28;20374;-86
2021/04/14 12:25:20;;;;;;;5.53;2.00;;;;;;;;;;5034503;28;20369;-86
2021/04/14 12:27:46;;;;;;;7.07;2.17;;;;;;;;;;5035313;28;20369;-83
2021/04/14 12:30:12;;;;;;;6.65;2.38;;;;;;;;;;5037107;28;20378;-81
2021/04/14 12:32:38;;;;;;;6.10;2.03;;;;;;;;;;5035468;28;20377;-81
2021/04/14 12:35:05;;;;;;;5.37;2.07;;;;;;;;;;5038169;28;20389;-82
2021/04/14 12:37:31;;;;;;;5.07;1.92;;;;;;;;;;5033717;28;20370;-82
2021/04/14 12:40:01;;;;;;;4.10;1.92;;;;;;;;;;5034713;28;20369;-91
2021/04/14 12:42:30;;;;;;;6.45;2.30;;;;;;;;;;5032963;28;20373;-89
2021/04/14 12:44:57;;;;;;;7.40;2.17;;;;;;;;;;5033019;28;20374;-81
2021/04/14 12:47:24;;;;;;;7.20;2.13;;;;;;;;;;5032216;28;20373;-89
2021/04/14 12:49:52;;;;;;;6.80;2.05;;;;;;;;;;5034370;28;20374;-83
2021/04/14 12:52:25;;;;;;;5.97;2.00;;;;;;;;;;5035122;28;20767;-84
2021/04/14 12:54:55;;;;;;;5.50;2.25;;;;;;;;;;5032803;28;20393;-90
2021/04/14 12:57:30;;;;;;;7.20;2.00;;;;;;;;;;5032947;28;20384;-87
2021/04/14 12:59:59;;;;;;;5.13;2.05;;;;;;;;;;5033661;28;20412;-91
2021/04/14 13:02:31;;;;;;;5.55;1.90;;;;;;;;;;5030009;28;20399;-89
2021/04/14 13:05:00;;;;;;;6.18;2.25;;;;;;;;;;5032128;28;20377;-81
2021/04/14 13:07:32;;;;;;;6.80;2.30;;;;;;;;;;5034014;28;20385;-84
2021/04/14 13:10:00;;;;;;;5.97;2.17;;;;;;;;;;5037322;28;20416;-86
2021/04/14 13:12:26;;;;;;;5.15;2.10;;;;;;;;;;5036391;28;20736;-91
2021/04/14 13:14:53;;;;;;;6.50;1.98;;;;;;;;;;5036292;28;20401;-86
2021/04/14 13:17:22;;;;;;;6.43;2.10;;;;;;;;;;5032524;28;20378;-89
2021/04/14 13:19:51;;;;;;;5.13;1.80;;;;;;;;;;5034937;28;20452;-82
2021/04/14 13:22:20;;;;;;;6.20;1.92;;;;;;;;;;5036144;28;20374;-85
2021/04/14 13:24:51;;;;;;;13.45;3.00;;;;;;;;;;5033311;28;20373;-85
2021/04/14 13:27:35;;;;;;;6.22;2.00;;;;;;;;;;5031169;28;20423;-87
2021/04/14 13:30:07;;;;;;;5.30;2.03;;;;;;;;;;5032595;28;20911;-88
2021/04/14 13:32:44;;;;;;;7.97;2.50;;;;;;;;;;5033042;28;20376;-88
2021/04/14 13:35:12;;;;;;;6.13;2.05;;;;;;;;;;5032908;28;20393;-89
2021/04/14 13:37:42;;;;;;;7.50;2.53;;;;;;;;;;5032263;28;20366;-83
2021/04/14 13:40:08;;;;;;;6.80;2.17;;;;;;;;;;5033409;28;20366;-86
2021/04/14 13:42:37;;;;;;;5.13;2.08;;;;;;;;;;5042060;28;20381;-87
2021/04/14 13:45:18;;;;;;;6.95;2.08;;;;;;;;;;5042812;28;20375;-84
2021/04/14 13:47:54;;;;;;;7.78;2.08;;;;;;;;;;5039248;28;20932;-88
2021/04/14 13:50:28;;;;;;;5.20;1.90;;;;;;;;;;5038817;28;20377;-86
2021/04/14 13:52:59;;;;;;;5.85;2.05;;;;;;;;;;5039578;28;20369;-88
2021/04/14 13:55:25;;;;;;;6.55;2.15;;;;;;;;;;5039998;28;20432;-86
2021/04/14 13:58:10;;;;;;;4.68;1.95;;;;;;;;;;5043896;28;20400;-90
2021/04/14 14:00:43;;;;;;;7.00;2.10;;;;;;;;;;5036825;28;20408;-84
2021/04/14 14:03:09;;;;;;;6.70;2.20;;;;;;;;;;5037409;28;20393;-85
2021/04/14 14:05:37;;;;;;;5.03;2.03;;;;;;;;;;5037508;28;20393;-87
2021/04/14 14:08:23;;;;;;;5.72;2.13;;;;;;;;;;5039101;28;20377;-86
2021/04/14 14:10:57;;;;;;;6.73;2.20;;;;;;;;;;5037918;28;20548;-89
2021/04/14 14:13:25;;;;;;;6.23;2.07;;;;;;;;;;5038843;28;20400;-88
2021/04/14 14:15:54;;;;;;;5.30;2.00;;;;;;;;;;5037242;28;20464;-85
2021/04/14 14:18:20;;;;;;;5.20;2.20;;;;;;;;;;5037576;28;20423;-85
2021/04/14 14:20:46;;;;;;;4.50;1.90;;;;;;;;;;5037582;28;20452;-80
2021/04/14 14:23:22;;;;;;;3.88;1.67;;;;;;;;;;5038596;28;20460;-87
2021/04/14 14:25:55;;;;;;;5.15;1.83;;;;;;;;;;5037799;28;20365;-85
2021/04/14 14:28:22;;;;;;;4.60;1.90;;;;;;;;;;5037117;28;20405;-90
2021/04/14 14:30:56;;;;;;;4.53;1.77;;;;;;;;;;5030223;28;20477;-85
2021/04/14 14:33:22;;;;;;;6.25;1.90;;;;;;;;;;5016535;28;20470;-87
2021/04/14 14:35:54;;;;;;;4.97;1.95;;;;;;;;;;5018066;28;20485;-84
2021/04/14 14:38:22;;;;;;;6.95;2.08;;;;;;;;;;5017399;28;20367;-84
2021/04/14 14:40:51;;;;;;;6.47;1.80;;;;;;;;;;5016316;28;20383;-82
2021/04/14 14:43:30;;;;;;;5.70;1.98;;;;;;;;;;5017269;28;20444;-87
2021/04/14 14:46:00;;;;;;;5.45;1.80;;;;;;;;;;5017327;28;20375;-84
2021/04/14 14:48:33;;;;;;;3.88;1.60;;;;;;;;;;5018758;28;20375;-87